createdAt,value
2022-09-23T00:00:45.894Z,3.60
2022-09-23T00:03:48.193Z,3.50
2022-09-23T00:06:49.953Z,3.60
2022-09-23T00:09:51.761Z,3.70
2022-09-23T00:12:55.252Z,3.60
2022-09-23T00:15:57.043Z,3.90
2022-09-23T00:18:59.001Z,3.80
2022-09-23T00:22:00.765Z,3.60
2022-09-23T00:25:03.773Z,3.70
2022-09-23T00:28:05.682Z,3.70
2022-09-23T00:31:11.312Z,3.60
2022-09-23T00:34:13.181Z,3.20
2022-09-23T00:37:14.995Z,3.30
2022-09-23T00:40:17.056Z,3.20
2022-09-23T00:43:19.072Z,3.40
2022-09-23T00:46:39.860Z,3.40
2022-09-23T00:49:42.296Z,3.40
2022-09-23T00:52:44.441Z,3.40
2022-09-23T00:55:54.542Z,3.10
2022-09-23T00:58:56.423Z,3.00
2022-09-23T01:02:00.525Z,3.30
2022-09-23T01:05:04.782Z,3.00
2022-09-23T01:08:08.805Z,3.00
2022-09-23T01:11:19.509Z,2.80
2022-09-23T01:14:43.748Z,3.00
2022-09-23T01:18:12.224Z,3.10
2022-09-23T01:21:52.283Z,3.00
2022-09-23T01:25:33.278Z,3.00
2022-09-23T01:28:55.542Z,2.90
2022-09-23T01:32:44.039Z,2.90
2022-09-23T01:35:50.263Z,3.10
2022-09-23T01:39:17.186Z,3.50
2022-09-23T01:42:30.940Z,2.60
2022-09-23T01:45:55.740Z,2.40
2022-09-23T01:49:20.021Z,1.90
2022-09-23T01:52:30.403Z,2.60
2022-09-23T01:55:36.544Z,2.60
2022-09-23T01:58:57.166Z,2.40
2022-09-23T02:02:14.155Z,2.50
2022-09-23T02:05:24.033Z,2.40
2022-09-23T02:08:41.474Z,2.20
2022-09-23T02:11:47.630Z,2.40
2022-09-23T02:14:56.679Z,2.20
2022-09-23T02:18:08.166Z,2.20
2022-09-23T02:21:10.223Z,2.50
2022-09-23T02:24:18.382Z,2.20
2022-09-23T02:27:50.964Z,2.10
2022-09-23T02:31:09.867Z,1.60
2022-09-23T02:34:46.244Z,2.30
2022-09-23T02:38:20.824Z,2.30
2022-09-23T02:41:51.582Z,2.10
2022-09-23T02:44:53.584Z,2.30
2022-09-23T02:48:07.567Z,2.10
2022-09-23T02:51:10.268Z,2.10
2022-09-23T02:54:15.973Z,2.00
2022-09-23T02:57:17.954Z,1.90
2022-09-23T03:00:19.914Z,6.00
2022-09-23T03:03:27.698Z,2.00
2022-09-23T03:07:01.831Z,1.90
2022-09-23T03:10:24.890Z,2.30
2022-09-23T03:13:35.871Z,2.30
2022-09-23T03:16:58.777Z,4.80
2022-09-23T03:20:07.450Z,2.20
2022-09-23T03:23:12.183Z,2.20
2022-09-23T03:26:22.224Z,2.00
2022-09-23T03:29:24.243Z,2.10
2022-09-23T03:32:28.451Z,1.90
2022-09-23T03:35:33.905Z,2.10
2022-09-23T03:38:40.279Z,2.20
2022-09-23T03:41:49.398Z,1.40
2022-09-23T03:44:55.359Z,2.20
2022-09-23T03:47:57.247Z,2.10
2022-09-23T03:50:59.260Z,4.90
2022-09-23T03:54:01.226Z,1.80
2022-09-23T03:57:03.571Z,1.60
2022-09-23T04:00:07.022Z,2.10
2022-09-23T04:03:11.787Z,1.70
2022-09-23T04:06:13.964Z,1.40
2022-09-23T04:09:15.852Z,1.60
2022-09-23T04:12:17.828Z,2.30
2022-09-23T04:15:19.779Z,1.90
2022-09-23T04:18:21.665Z,5.30
2022-09-23T04:21:23.565Z,1.90
2022-09-23T04:24:25.631Z,4.80
2022-09-23T04:27:27.534Z,1.20
2022-09-23T04:30:29.394Z,5.60
2022-09-23T04:33:31.259Z,1.70
2022-09-23T04:36:33.133Z,1.30
2022-09-23T04:39:34.982Z,5.90
2022-09-23T04:42:36.824Z,1.30
2022-09-23T04:45:38.778Z,1.80
2022-09-23T04:48:41.335Z,2.40
2022-09-23T04:51:43.349Z,1.70
2022-09-23T04:54:45.299Z,3.40
2022-09-23T04:57:47.422Z,1.30
2022-09-23T05:00:49.425Z,4.40
2022-09-23T05:03:53.464Z,2.70
2022-09-23T05:06:57.457Z,4.10
2022-09-23T05:10:03.171Z,3.90
2022-09-23T05:13:05.065Z,2.00
2022-09-23T05:16:09.670Z,3.90
2022-09-23T05:19:11.596Z,2.00
2022-09-23T05:22:13.468Z,2.30
2022-09-23T05:25:15.460Z,5.30
2022-09-23T05:28:17.314Z,2.10
2022-09-23T05:31:21.345Z,3.10
2022-09-23T05:34:23.277Z,2.10
2022-09-23T05:37:25.164Z,2.20
2022-09-23T05:40:27.060Z,3.90
2022-09-23T05:43:29.382Z,2.60
2022-09-23T05:46:31.455Z,2.30
2022-09-23T05:49:57.951Z,2.60
2022-09-23T05:52:55.153Z,2.60
2022-09-23T05:55:57.575Z,5.20
2022-09-23T05:59:01.001Z,3.00
2022-09-23T06:02:02.983Z,3.40
2022-09-23T06:05:05.217Z,3.40
2022-09-23T06:08:08.215Z,3.20
2022-09-23T06:11:10.903Z,3.30
2022-09-23T06:14:14.101Z,3.50
2022-09-23T06:17:16.008Z,2.50
2022-09-23T06:20:17.866Z,6.00
2022-09-23T06:23:22.906Z,5.40
2022-09-23T06:26:26.683Z,4.40
2022-09-23T06:29:28.545Z,5.50
2022-09-23T06:32:30.443Z,5.30
2022-09-23T06:35:32.382Z,5.50
2022-09-23T06:38:34.888Z,6.00
2022-09-23T06:41:36.790Z,6.00
2022-09-23T06:44:38.648Z,6.30
2022-09-23T06:47:43.499Z,7.60
2022-09-23T06:50:45.373Z,6.60
2022-09-23T06:53:48.444Z,6.70
2022-09-23T06:56:50.334Z,6.90
2022-09-23T06:59:52.450Z,7.10
2022-09-23T07:02:54.409Z,7.30
2022-09-23T07:05:56.615Z,7.50
2022-09-23T07:08:58.528Z,7.70
2022-09-23T07:12:00.492Z,7.80
2022-09-23T07:15:02.868Z,7.90
2022-09-23T07:18:04.766Z,8.30
2022-09-23T07:21:12.171Z,9.30
2022-09-23T07:24:14.017Z,10.10
2022-09-23T07:27:15.862Z,11.10
2022-09-23T07:30:24.554Z,11.40
2022-09-23T07:33:32.311Z,12.30
2022-09-23T07:36:34.882Z,13.40
2022-09-23T07:39:36.868Z,13.90
2022-09-23T07:45:41.126Z,16.60
2022-09-23T07:48:43.584Z,18.00
2022-09-23T07:51:45.397Z,18.60
2022-09-23T07:54:47.719Z,19.20
2022-09-23T07:57:49.593Z,19.40
2022-09-23T08:03:53.787Z,20.30
2022-09-23T08:06:58.536Z,21.00
2022-09-23T08:10:01.591Z,20.40
2022-09-23T08:13:03.475Z,20.60
2022-09-23T08:16:06.106Z,21.40
2022-09-23T08:19:08.659Z,21.10
2022-09-23T08:22:10.438Z,21.40
2022-09-23T08:25:12.299Z,20.40
2022-09-23T08:28:15.622Z,20.90
2022-09-23T08:31:17.595Z,21.30
2022-09-23T08:34:22.679Z,20.60
2022-09-23T08:37:24.554Z,21.10
2022-09-23T08:40:26.513Z,21.60
2022-09-23T08:43:33.969Z,22.20
2022-09-23T08:46:39.463Z,22.50
2022-09-23T08:50:02.700Z,23.00
2022-09-23T08:53:12.174Z,22.80
2022-09-23T08:56:23.327Z,21.40
2022-09-23T08:59:37.165Z,22.70
2022-09-23T09:02:39.154Z,22.20
2022-09-23T09:08:47.220Z,22.50
2022-09-23T09:11:52.718Z,21.90
2022-09-23T09:15:20.470Z,21.90
2022-09-23T09:21:34.492Z,23.10
2022-09-23T09:27:40.584Z,23.80
2022-09-23T09:30:48.298Z,23.60
2022-09-23T09:33:53.839Z,24.20
2022-09-23T09:37:13.215Z,23.90
2022-09-23T09:40:16.221Z,23.50
2022-09-23T09:43:19.472Z,23.50
2022-09-23T09:46:52.329Z,22.50
2022-09-23T09:49:56.079Z,21.90
2022-09-23T09:53:21.365Z,23.00
2022-09-23T09:56:33.409Z,22.70
2022-09-23T09:59:35.838Z,22.60
2022-09-23T10:02:39.783Z,22.80
2022-09-23T10:05:44.440Z,22.80
2022-09-23T10:09:08.424Z,23.80
2022-09-23T10:12:15.915Z,24.40
2022-09-23T10:18:34.190Z,23.40
2022-09-23T10:21:37.403Z,23.40
2022-09-23T10:24:47.165Z,22.10
2022-09-23T10:34:27.637Z,18.30
2022-09-23T10:37:33.602Z,18.10
2022-09-23T10:40:44.013Z,18.00
2022-09-23T10:43:58.877Z,19.10
2022-09-23T10:47:13.672Z,20.50
2022-09-23T10:50:39.245Z,19.50
2022-09-23T10:54:13.236Z,19.60
2022-09-23T11:00:23.571Z,20.60
2022-09-23T11:03:50.376Z,21.30
2022-09-23T11:10:29.142Z,20.50
2022-09-23T11:13:49.134Z,19.60
2022-09-23T11:17:17.943Z,19.50
2022-09-23T11:20:50.017Z,19.40
2022-09-23T11:24:09.733Z,19.10
2022-09-23T11:27:35.812Z,18.90
2022-09-23T11:31:00.680Z,19.10
2022-09-23T11:34:32.459Z,19.10
2022-09-23T11:37:40.318Z,18.90
2022-09-23T11:40:46.709Z,18.40
2022-09-23T11:43:53.129Z,17.60
2022-09-23T11:46:58.515Z,17.50
2022-09-23T11:50:09.931Z,17.50
2022-09-23T11:53:36.394Z,17.60
2022-09-23T11:56:47.233Z,17.60
2022-09-23T11:59:56.398Z,19.40
2022-09-23T12:03:21.808Z,19.40
2022-09-23T12:06:33.078Z,20.70
2022-09-23T12:10:02.734Z,22.50
2022-09-23T12:13:10.361Z,22.60
2022-09-23T12:16:39.820Z,23.60
2022-09-23T12:20:29.095Z,24.80
2022-09-23T12:23:53.986Z,25.10
2022-09-23T12:27:00.007Z,24.90
2022-09-23T12:30:05.422Z,24.80
2022-09-23T12:33:28.852Z,23.40
2022-09-23T12:36:34.157Z,21.80
2022-09-23T12:39:38.159Z,21.50
2022-09-23T12:42:48.367Z,20.60
2022-09-23T12:45:50.949Z,20.30
2022-09-23T12:55:21.450Z,19.20
2022-09-23T12:58:58.201Z,18.60
2022-09-23T13:02:27.374Z,18.50
2022-09-23T13:05:30.336Z,18.10
2022-09-23T13:08:35.778Z,18.00
2022-09-23T13:14:43.908Z,17.70
2022-09-23T13:17:45.836Z,17.60
2022-09-23T13:20:49.162Z,17.40
2022-09-23T13:24:13.058Z,17.50
2022-09-23T13:30:26.405Z,19.90
2022-09-23T13:33:46.183Z,20.00
2022-09-23T13:36:48.783Z,21.50
2022-09-23T13:39:51.332Z,21.80
2022-09-23T13:42:59.327Z,22.60
2022-09-23T13:46:03.212Z,23.40
2022-09-23T13:49:06.039Z,24.00
2022-09-23T13:52:26.903Z,24.20
2022-09-23T13:55:32.189Z,24.70
2022-09-23T13:58:35.338Z,25.10
2022-09-23T14:01:37.325Z,25.20
2022-09-23T14:04:39.733Z,25.30
2022-09-23T14:07:41.549Z,24.80
2022-09-23T14:10:45.901Z,22.20
2022-09-23T14:13:52.640Z,21.60
2022-09-23T14:23:26.052Z,22.10
2022-09-23T14:26:28.047Z,22.40
2022-09-23T14:29:42.792Z,22.20
2022-09-23T14:32:45.247Z,23.00
2022-09-23T14:35:49.655Z,23.20
2022-09-23T14:38:51.601Z,22.80
2022-09-23T14:44:55.935Z,23.30
2022-09-23T14:48:01.149Z,22.90
2022-09-23T14:51:07.519Z,20.90
2022-09-23T14:54:32.465Z,18.90
2022-09-23T15:00:37.032Z,18.80
2022-09-23T15:03:46.841Z,18.20
2022-09-23T15:06:59.362Z,18.60
2022-09-23T15:10:01.360Z,18.50
2022-09-23T15:13:12.274Z,18.10
2022-09-23T15:16:16.678Z,18.10
2022-09-23T15:19:20.930Z,19.10
2022-09-23T15:22:24.945Z,19.90
2022-09-23T15:25:40.549Z,20.40
2022-09-23T15:28:43.066Z,20.30
2022-09-23T15:31:44.947Z,20.60
2022-09-23T15:34:49.151Z,20.50
2022-09-23T15:40:53.723Z,20.50
2022-09-23T15:46:57.961Z,20.00
2022-09-23T15:53:02.343Z,18.90
2022-09-23T15:56:04.972Z,18.50
2022-09-23T15:59:06.913Z,17.60
2022-09-23T16:02:19.785Z,17.00
2022-09-23T16:05:39.533Z,16.70
2022-09-23T16:11:45.898Z,16.10
2022-09-23T16:14:47.757Z,16.00
2022-09-23T16:20:52.159Z,15.30
2022-09-23T16:23:54.458Z,15.00
2022-09-23T16:26:57.815Z,14.50
2022-09-23T16:29:59.782Z,14.10
2022-09-23T16:33:01.657Z,13.70
2022-09-23T16:39:08.572Z,13.10
2022-09-23T16:45:14.127Z,12.60
2022-09-23T16:48:16.016Z,12.10
2022-09-23T16:51:20.430Z,12.00
2022-09-23T16:54:22.362Z,11.70
2022-09-23T16:57:24.238Z,11.60
2022-09-23T17:00:26.176Z,11.30
2022-09-23T17:03:28.032Z,11.40
2022-09-23T17:09:32.596Z,11.10
2022-09-23T17:15:38.867Z,10.50
2022-09-23T17:18:40.741Z,10.40
2022-09-23T17:21:42.681Z,10.30
2022-09-23T17:24:44.559Z,10.10
2022-09-23T17:27:50.901Z,10.00
2022-09-23T17:30:57.694Z,9.70
2022-09-23T17:33:59.588Z,9.60
2022-09-23T17:40:05.235Z,9.20
2022-09-23T17:43:08.096Z,9.00
2022-09-23T17:46:13.103Z,9.10
2022-09-23T17:52:19.122Z,8.90
2022-09-23T17:55:21.010Z,8.90
2022-09-23T17:58:30.840Z,8.90
2022-09-23T18:01:32.797Z,8.80
2022-09-23T18:04:34.678Z,8.60
2022-09-23T18:07:36.571Z,8.40
2022-09-23T18:10:38.448Z,8.20
2022-09-23T18:13:40.381Z,8.20
2022-09-23T18:16:44.739Z,8.20
2022-09-23T18:28:54.770Z,7.70
2022-09-23T18:34:58.923Z,7.60
2022-09-23T18:41:03.130Z,7.50
2022-09-23T18:44:05.191Z,7.40
2022-09-23T18:50:12.248Z,7.30
2022-09-23T18:53:14.138Z,7.20
2022-09-23T18:56:19.586Z,7.30
2022-09-23T18:59:23.836Z,7.30
2022-09-23T19:02:25.763Z,7.20
2022-09-23T19:05:27.640Z,7.10
2022-09-23T19:08:29.569Z,6.90
2022-09-23T19:14:33.913Z,6.80
2022-09-23T19:20:38.117Z,6.80
2022-09-23T19:23:44.661Z,6.60
2022-09-23T19:26:46.559Z,6.60
2022-09-23T19:32:50.703Z,6.40
2022-09-23T19:35:52.752Z,6.20
2022-09-23T19:38:56.685Z,5.90
2022-09-23T19:45:01.043Z,6.10
2022-09-23T19:48:03.151Z,6.10
2022-09-23T19:51:05.129Z,6.10
2022-09-23T19:54:08.325Z,6.20
2022-09-23T19:57:10.284Z,6.20
2022-09-23T20:00:14.090Z,6.00
2022-09-23T20:03:15.983Z,6.20
2022-09-23T20:06:18.308Z,6.30
2022-09-23T20:09:20.195Z,5.90
2022-09-23T20:12:22.088Z,5.80
2022-09-23T20:15:23.960Z,5.70
2022-09-23T20:18:25.806Z,5.70
2022-09-23T20:21:28.923Z,4.90
2022-09-23T20:24:30.817Z,5.70
2022-09-23T20:27:32.677Z,5.60
2022-09-23T20:30:34.540Z,5.70
2022-09-23T20:33:36.412Z,5.60
2022-09-23T20:36:39.609Z,5.80
2022-09-23T20:39:41.491Z,5.60
2022-09-23T20:42:43.344Z,5.70
2022-09-23T20:45:50.478Z,6.20
2022-09-23T20:48:52.625Z,5.70
2022-09-23T20:51:54.495Z,5.60
2022-09-23T20:54:56.345Z,5.60
2022-09-23T20:57:58.232Z,6.70
2022-09-23T21:01:01.590Z,5.50
2022-09-23T21:04:04.360Z,5.60
2022-09-23T21:07:06.287Z,5.50
2022-09-23T21:10:08.245Z,5.90
2022-09-23T21:13:10.123Z,5.40
2022-09-23T21:16:12.806Z,5.40
2022-09-23T21:19:14.690Z,5.40
2022-09-23T21:22:16.587Z,5.50
2022-09-23T21:25:27.988Z,5.60
2022-09-23T21:28:36.085Z,6.00
2022-09-23T21:31:38.043Z,6.20
2022-09-23T21:34:39.954Z,5.30
2022-09-23T21:37:41.822Z,5.30
2022-09-23T21:40:43.697Z,6.30
2022-09-23T21:43:45.837Z,5.20
2022-09-23T21:46:47.752Z,5.20
2022-09-23T21:49:50.911Z,6.00
2022-09-23T21:52:52.985Z,5.10
2022-09-23T21:56:04.129Z,5.70
2022-09-23T21:59:06.571Z,5.00
2022-09-23T22:02:08.311Z,5.00
2022-09-23T22:08:12.474Z,5.10
2022-09-23T22:11:18.697Z,5.70
2022-09-23T22:14:22.385Z,4.90
2022-09-23T22:17:24.245Z,4.80
2022-09-23T22:20:26.218Z,5.90
2022-09-23T22:23:28.077Z,5.30
2022-09-23T22:26:33.142Z,4.90
2022-09-23T22:29:35.053Z,5.00
2022-09-23T22:32:36.960Z,5.00
2022-09-23T22:35:38.837Z,4.90
2022-09-23T22:41:43.094Z,5.00
2022-09-23T22:44:44.957Z,4.90
2022-09-23T22:47:46.851Z,4.60
2022-09-23T22:50:48.721Z,4.80
2022-09-23T22:53:51.884Z,4.50
2022-09-23T22:56:53.876Z,4.60
2022-09-23T23:02:58.042Z,4.90
2022-09-23T23:06:04.845Z,5.20
2022-09-23T23:09:14.127Z,4.70
2022-09-23T23:12:16.338Z,4.70
2022-09-23T23:15:18.224Z,4.70
2022-09-23T23:18:20.094Z,4.60
2022-09-23T23:21:22.277Z,4.50
2022-09-23T23:24:24.706Z,4.70
2022-09-23T23:27:26.491Z,4.60
2022-09-23T23:30:28.417Z,4.60
2022-09-23T23:33:30.561Z,4.60
2022-09-23T23:36:32.469Z,4.60
2022-09-23T23:39:34.441Z,4.50
2022-09-23T23:42:36.275Z,4.40
2022-09-23T23:45:38.141Z,5.30
2022-09-23T23:48:40.339Z,4.50
2022-09-23T23:51:42.277Z,4.60
2022-09-23T23:54:44.206Z,4.60
